Time;durP1;ratioP1;P1;durP2;ratioP2;P2;SDS_P1;SDS_P2;PMS_P1;PMS_P2;Temp;Humidity;BMP_temperature;BMP_pressure;BME280_temperature;BME280_humidity;BME280_pressure;Samples;Min_cycle;Max_cycle;Signal;HPM_P1;HPM_P2
2023/01/21 00:02:29;;;;;;;36.47;24.40;;;;;;;-0.05;70.54;100475.25;10378510;28;20053;-65
2023/01/21 00:07:31;;;;;;;39.28;23.73;;;;;;;0.00;70.35;100479.50;10375770;28;20398;-65
2023/01/21 00:12:32;;;;;;;45.00;25.30;;;;;;;0.10;70.07;100485.41;10373472;28;20496;-65
2023/01/21 00:17:35;;;;;;;40.78;24.05;;;;;;;0.16;70.00;100490.53;10373335;28;20037;-64
2023/01/21 00:22:36;;;;;;;39.15;23.75;;;;;;;0.23;69.86;100500.72;10376823;28;20041;-64
2023/01/21 00:27:39;;;;;;;40.63;24.42;;;;;;;0.31;69.70;100505.81;10374782;28;20532;-65
2023/01/21 00:32:41;;;;;;;42.92;24.40;;;;;;;0.40;69.43;100501.41;10374506;28;20071;-65
2023/01/21 00:37:43;;;;;;;38.17;22.80;;;;;;;0.33;69.39;100517.78;10373964;28;20517;-65
2023/01/21 00:42:46;;;;;;;38.45;23.48;;;;;;;0.30;69.28;100528.09;10371053;28;20037;-65
2023/01/21 00:47:48;;;;;;;37.83;23.00;;;;;;;0.11;69.54;100531.69;10380776;28;20658;-65
2023/01/21 00:52:51;;;;;;;37.58;23.25;;;;;;;0.04;69.89;100537.75;10384219;28;20048;-65
2023/01/21 00:57:54;;;;;;;42.47;24.42;;;;;;;0.22;69.29;100544.47;10378556;28;20055;-65
2023/01/21 01:02:56;;;;;;;39.08;23.98;;;;;;;0.09;69.41;100555.72;10385807;28;20045;-65
2023/01/21 01:07:58;;;;;;;42.80;25.63;;;;;;;0.09;69.16;100561.72;10382361;28;20544;-65
2023/01/21 01:13:00;;;;;;;40.95;25.48;;;;;;;-0.08;69.02;100562.69;10382768;28;20489;-65
2023/01/21 01:18:02;;;;;;;43.80;24.70;;;;;;;-0.09;68.91;100581.56;10383934;28;20506;-65
2023/01/21 01:23:07;;;;;;;38.83;23.75;;;;;;;-0.06;69.03;100589.25;10382211;28;20088;-65
2023/01/21 01:28:09;;;;;;;39.95;24.00;;;;;;;-0.13;68.64;100603.00;10381638;28;20147;-65
2023/01/21 01:33:11;;;;;;;35.13;22.60;;;;;;;-0.41;68.53;100610.00;10381546;28;20045;-65
2023/01/21 01:38:19;;;;;;;33.88;22.08;;;;;;;-0.42;68.41;100624.56;10381703;28;20080;-65
2023/01/21 01:43:24;;;;;;;32.33;21.58;;;;;;;-0.69;68.45;100629.81;10382419;28;20045;-65
2023/01/21 01:48:30;;;;;;;32.33;21.20;;;;;;;-0.79;68.49;100643.53;10380988;28;20320;-66
2023/01/21 01:53:34;;;;;;;35.35;21.48;;;;;;;-0.96;68.50;100650.41;10382199;28;20074;-65
2023/01/21 01:58:37;;;;;;;37.45;22.80;;;;;;;-1.06;68.70;100658.97;10379329;28;20049;-65
2023/01/21 02:03:44;;;;;;;39.92;22.80;;;;;;;-1.10;68.57;100666.72;10379677;28;20710;-66
2023/01/21 02:08:47;;;;;;;40.08;23.63;;;;;;;-1.15;68.51;100680.38;10381022;28;20072;-65
2023/01/21 02:13:53;;;;;;;38.40;21.88;;;;;;;-1.22;68.42;100680.38;10377550;28;20482;-66
2023/01/21 02:19:31;;;;;;;37.00;20.85;;;;;;;-1.45;67.77;100694.94;10382963;28;20049;-65
2023/01/21 02:24:51;;;;;;;37.22;22.35;;;;;;;-1.55;68.01;100699.19;10382664;28;20045;-64
2023/01/21 02:30:35;;;;;;;42.15;23.60;;;;;;;-1.54;68.25;100710.31;10381358;28;20068;-65
2023/01/21 02:35:53;;;;;;;40.70;23.15;;;;;;;-1.68;68.44;100720.56;10350616;28;20978;-66
2023/01/21 02:41:27;;;;;;;38.88;22.52;;;;;;;-1.80;68.26;100729.91;10379780;28;20049;-65
2023/01/21 02:46:52;;;;;;;40.38;23.05;;;;;;;-1.83;68.38;100729.88;10380011;28;20056;-65
2023/01/21 02:51:53;;;;;;;42.03;22.65;;;;;;;-1.79;68.28;100739.31;10375753;28;20500;-66
2023/01/21 02:56:55;;;;;;;37.75;23.13;;;;;;;-1.85;68.51;100747.84;10380247;28;20370;-65
2023/01/21 03:02:17;;;;;;;34.50;20.90;;;;;;;-1.80;68.42;100748.72;10382616;28;20049;-65
2023/01/21 03:07:31;;;;;;;36.85;21.60;;;;;;;-1.57;68.22;100756.44;10385977;28;20251;-65
2023/01/21 03:12:41;;;;;;;30.92;19.50;;;;;;;-1.51;68.03;100761.63;10385254;28;20081;-65
2023/01/21 03:17:53;;;;;;;28.50;18.90;;;;;;;-1.62;67.81;100766.72;10386030;28;20037;-65
2023/01/21 03:23:01;;;;;;;30.27;18.48;;;;;;;-1.58;67.88;100770.16;10390318;28;20051;-65
2023/01/21 03:28:09;;;;;;;31.10;19.20;;;;;;;-1.61;67.65;100777.81;10382047;28;20092;-65
2023/01/21 03:33:14;;;;;;;34.08;20.45;;;;;;;-1.59;68.01;100773.53;10384647;28;20394;-65
2023/01/21 03:38:23;;;;;;;33.08;20.45;;;;;;;-1.41;67.91;100773.63;10385346;28;20041;-65
2023/01/21 03:43:25;;;;;;;33.03;20.38;;;;;;;-1.43;67.69;100786.41;10381876;28;20212;-65
2023/01/21 03:48:39;;;;;;;33.65;19.83;;;;;;;-1.34;67.23;100785.59;10380147;28;20053;-65
2023/01/21 03:53:42;;;;;;;33.45;20.13;;;;;;;-1.37;67.43;100790.72;10387740;28;20056;-65
2023/01/21 03:58:43;;;;;;;30.95;19.55;;;;;;;-1.24;67.40;100788.19;10381201;28;20057;-65
2023/01/21 04:03:45;;;;;;;34.22;20.00;;;;;;;-1.01;67.32;100795.03;10381412;28;20948;-66
2023/01/21 04:08:47;;;;;;;31.08;20.23;;;;;;;-0.85;67.14;100802.75;10378922;28;20202;-65
2023/01/21 04:13:49;;;;;;;30.98;18.98;;;;;;;-0.97;67.10;100810.47;10374765;28;20049;-65
2023/01/21 04:18:51;;;;;;;38.40;22.33;;;;;;;-1.06;67.04;100805.31;10377575;28;20041;-65
2023/01/21 04:23:52;;;;;;;34.80;22.25;;;;;;;-1.12;67.27;100820.69;10385194;28;20045;-65
2023/01/21 04:28:54;;;;;;;34.75;21.60;;;;;;;-1.35;67.11;100824.94;10383872;28;20053;-65
2023/01/21 04:33:56;;;;;;;34.22;19.80;;;;;;;-1.51;67.08;100829.16;10383930;28;20049;-65
2023/01/21 04:38:57;;;;;;;34.80;21.90;;;;;;;-1.47;67.47;100828.31;10384455;28;20045;-65
2023/01/21 04:43:59;;;;;;;30.70;20.33;;;;;;;-1.24;67.40;100829.25;10384061;28;20065;-65
2023/01/21 04:49:00;;;;;;;35.53;21.55;;;;;;;-1.21;67.32;100841.22;10383603;28;20060;-65
2023/01/21 04:54:02;;;;;;;34.75;20.27;;;;;;;-1.24;66.92;100843.78;10383991;28;20045;-65
2023/01/21 04:59:04;;;;;;;38.08;21.88;;;;;;;-1.27;66.92;100843.78;10383536;28;20521;-65
2023/01/21 05:04:05;;;;;;;34.03;20.65;;;;;;;-1.34;66.75;100857.44;10383688;28;20394;-65
2023/01/21 05:09:07;;;;;;;40.60;23.08;;;;;;;-1.25;66.96;100858.31;10382812;28;20053;-65
2023/01/21 05:14:09;;;;;;;39.95;24.13;;;;;;;-1.15;66.75;100864.34;10384330;28;20467;-65
2023/01/21 05:19:11;;;;;;;40.25;24.63;;;;;;;-1.02;66.94;100860.09;10383741;28;20458;-65
2023/01/21 05:24:13;;;;;;;39.95;23.15;;;;;;;-0.95;66.56;100865.22;10384910;28;20315;-66
2023/01/21 05:29:17;;;;;;;38.65;22.60;;;;;;;-0.86;66.50;100854.94;10387599;28;20056;-65
2023/01/21 05:34:19;;;;;;;37.83;23.60;;;;;;;-1.00;66.54;100864.34;10385700;28;20049;-65
2023/01/21 05:39:21;;;;;;;39.78;21.83;;;;;;;-1.10;66.38;100872.88;10379620;28;20057;-65
2023/01/21 05:44:22;;;;;;;36.80;23.25;;;;;;;-1.47;66.13;100882.19;10383436;28;20049;-65
2023/01/21 05:49:24;;;;;;;40.28;22.92;;;;;;;-1.63;66.78;100882.09;10381275;28;20069;-65
2023/01/21 05:54:26;;;;;;;36.65;22.73;;;;;;;-1.86;66.48;100891.41;10383442;28;20045;-65
2023/01/21 05:59:27;;;;;;;40.00;23.33;;;;;;;-2.15;66.75;100896.34;10383470;28;20231;-66
2023/01/21 06:04:29;;;;;;;39.53;22.45;;;;;;;-2.37;66.55;100894.47;10380699;28;20051;-65
2023/01/21 06:09:31;;;;;;;41.58;23.25;;;;;;;-2.83;66.82;100904.31;10380120;28;20049;-65
2023/01/21 06:14:32;;;;;;;44.45;24.35;;;;;;;-3.06;67.33;100907.50;10380221;28;20038;-65
2023/01/21 06:19:34;;;;;;;41.55;23.88;;;;;;;-3.07;67.56;100905.75;10380823;28;20046;-65
2023/01/21 06:24:35;;;;;;;45.20;24.15;;;;;;;-3.21;67.53;100917.56;10381903;28;20053;-65
2023/01/21 06:29:37;;;;;;;49.28;26.73;;;;;;;-3.31;67.96;100923.41;10380813;28;20053;-65
2023/01/21 06:34:39;;;;;;;42.22;24.05;;;;;;;-3.38;67.88;100925.03;10377973;28;20525;-65
2023/01/21 06:39:40;;;;;;;42.55;24.67;;;;;;;-3.46;68.04;100926.63;10374543;28;20339;-66
2023/01/21 06:44:43;;;;;;;48.47;25.27;;;;;;;-3.60;67.91;100937.50;10378928;28;20040;-65
2023/01/21 06:49:45;;;;;;;40.55;22.48;;;;;;;-3.70;67.97;100936.53;10379116;28;20072;-65
2023/01/21 06:54:47;;;;;;;37.38;21.63;;;;;;;-3.63;68.62;100934.94;10380483;28;20045;-66
2023/01/21 06:59:48;;;;;;;41.72;22.52;;;;;;;-3.49;67.84;100948.75;10379159;28;20068;-66
2023/01/21 07:04:50;;;;;;;90.88;24.92;;;;;;;-3.58;67.57;100961.41;10379492;28;20045;-66
2023/01/21 07:09:53;;;;;;;58.42;22.20;;;;;;;-3.71;67.49;100975.72;10377677;28;20165;-65
2023/01/21 07:14:55;;;;;;;32.35;19.05;;;;;;;-3.91;67.50;100977.97;10377218;28;20041;-66
2023/01/21 07:19:57;;;;;;;38.08;21.33;;;;;;;-3.88;67.62;100974.63;10376685;28;20045;-65
2023/01/21 07:24:59;;;;;;;45.75;24.27;;;;;;;-3.83;67.83;100985.75;10376790;28;20064;-66
2023/01/21 07:30:01;;;;;;;45.13;24.08;;;;;;;-3.80;67.57;100991.78;10380152;28;20148;-65
2023/01/21 07:35:02;;;;;;;47.42;23.13;;;;;;;-4.00;67.42;101007.66;10373530;28;20045;-66
2023/01/21 07:40:05;;;;;;;39.53;21.33;;;;;;;-4.01;67.22;101008.47;10378307;28;20841;-66
2023/01/21 07:45:07;;;;;;;41.90;22.67;;;;;;;-3.94;67.35;101029.06;10376049;28;20051;-66
2023/01/21 07:50:09;;;;;;;40.95;21.95;;;;;;;-3.86;67.20;101029.16;10377723;28;20068;-65
2023/01/21 07:55:11;;;;;;;43.10;23.33;;;;;;;-3.61;67.24;101028.72;10378215;28;20794;-66
2023/01/21 08:00:14;;;;;;;43.67;23.17;;;;;;;-3.45;66.65;101035.75;10383124;28;20461;-66
2023/01/21 08:05:16;;;;;;;45.63;24.40;;;;;;;-3.17;66.60;101035.28;10388563;28;20064;-66
2023/01/21 08:10:18;;;;;;;45.05;24.92;;;;;;;-2.95;66.43;101042.41;10384066;28;20396;-65
2023/01/21 08:15:20;;;;;;;55.03;27.15;;;;;;;-2.71;66.10;101048.66;10384246;28;20072;-65
2023/01/21 08:20:22;;;;;;;43.38;25.60;;;;;;;-2.47;66.11;101049.75;10384042;28;20072;-66
2023/01/21 08:25:24;;;;;;;41.70;23.60;;;;;;;-2.47;65.54;101049.75;10385092;28;20433;-65
2023/01/21 08:30:26;;;;;;;36.20;22.65;;;;;;;-2.42;65.45;101057.50;10386071;28;20053;-66
2023/01/21 08:35:28;;;;;;;42.55;23.00;;;;;;;-2.26;65.00;101060.25;10381972;28;20052;-65
2023/01/21 08:40:30;;;;;;;36.70;22.38;;;;;;;-2.11;64.97;101062.97;10384177;28;20064;-65
2023/01/21 08:45:31;;;;;;;36.13;22.58;;;;;;;-1.91;64.72;101065.69;10389336;28;20056;-65
2023/01/21 08:50:33;;;;;;;37.20;22.40;;;;;;;-1.81;64.31;101069.19;10386564;28;20680;-65
2023/01/21 08:55:35;;;;;;;35.42;22.45;;;;;;;-1.59;64.80;101061.66;10383706;28;20053;-66
2023/01/21 09:00:36;;;;;;;30.30;19.05;;;;;;;-1.24;64.39;101064.47;10385952;28;20335;-65
2023/01/21 09:05:38;;;;;;;30.60;18.52;;;;;;;-1.10;63.70;101073.09;10381182;28;20118;-65
2023/01/21 09:16:00;;;;;;;25.30;16.90;;;;;;;-0.81;63.18;101068.13;10385840;28;20069;-65
2023/01/21 09:21:04;;;;;;;27.63;16.80;;;;;;;-0.47;63.20;101067.38;10384226;28;20049;-65
2023/01/21 09:26:07;;;;;;;28.50;16.35;;;;;;;-0.26;62.66;101075.16;10381851;28;20053;-65
2023/01/21 09:31:17;;;;;;;28.20;18.10;;;;;;;-0.14;62.25;101087.16;10382728;28;20564;-66
2023/01/21 09:36:21;;;;;;;32.50;19.83;;;;;;;0.13;62.29;101087.22;10380702;28;20055;-66
2023/01/21 09:41:32;;;;;;;31.98;19.85;;;;;;;0.51;61.67;101080.34;10381915;28;20521;-66
2023/01/21 09:46:41;;;;;;;32.78;20.10;;;;;;;0.75;61.21;101084.63;10378742;28;20045;-66
2023/01/21 09:51:52;;;;;;;26.73;18.08;;;;;;;0.86;60.81;101094.03;10380991;28;20053;-66
2023/01/21 09:57:11;;;;;;;24.92;16.95;;;;;;;1.20;60.08;101092.22;10384079;28;20092;-66
2023/01/21 10:02:27;;;;;;;26.92;17.05;;;;;;;1.44;59.35;101104.19;10378329;28;20053;-65
2023/01/21 10:07:34;;;;;;;24.48;16.25;;;;;;;1.57;59.27;101106.69;10378512;28;20045;-66
2023/01/21 10:12:38;;;;;;;27.52;17.33;;;;;;;1.65;58.57;101101.47;10409273;28;20056;-66
2023/01/21 10:17:55;;;;;;;30.17;17.40;;;;;;;1.39;58.13;101106.78;10414084;28;20424;-66
2023/01/21 10:23:06;;;;;;;33.10;20.40;;;;;;;1.62;58.80;101111.81;10417064;28;20507;-66
2023/01/21 10:28:24;;;;;;;33.42;21.55;;;;;;;1.67;58.68;101108.34;10412485;28;20056;-66
2023/01/21 10:33:31;;;;;;;29.63;18.17;;;;;;;1.87;58.88;101109.09;10417235;28;20236;-66
2023/01/21 10:39:04;;;;;;;30.48;18.38;;;;;;;2.03;57.15;101104.72;10411263;28;20428;-66
2023/01/21 10:44:12;;;;;;;32.08;18.42;;;;;;;2.11;58.04;101105.53;10390976;28;20512;-66
2023/01/21 10:49:25;;;;;;;31.42;20.55;;;;;;;2.24;58.18;101101.97;10409103;28;20055;-66
2023/01/21 10:54:30;;;;;;;29.90;19.92;;;;;;;2.36;58.02;101103.63;10421260;28;20041;-66
2023/01/21 10:59:36;;;;;;;30.35;17.73;;;;;;;2.24;57.44;101099.41;10413183;28;20554;-66
2023/01/21 11:04:41;;;;;;;26.02;18.02;;;;;;;2.60;57.17;101096.50;10408653;28;20045;-66
2023/01/21 11:09:45;;;;;;;30.38;20.63;;;;;;;2.69;57.08;101093.84;10406360;28;20049;-66
2023/01/21 11:14:59;;;;;;;25.58;16.05;;;;;;;2.76;56.41;101095.53;10410948;28;20158;-66
2023/01/21 11:20:22;;;;;;;23.88;14.15;;;;;;;2.76;55.39;101094.66;10412353;28;20056;-66
2023/01/21 11:25:34;;;;;;;28.15;16.45;;;;;;;2.81;56.60;101092.88;10408818;28;20131;-66
2023/01/21 11:30:37;;;;;;;22.63;14.30;;;;;;;2.61;56.45;101090.50;10412827;28;20055;-66
2023/01/21 11:35:54;;;;;;;23.50;14.05;;;;;;;2.70;56.33;101092.13;10414636;28;20323;-66
2023/01/21 11:41:04;;;;;;;57.78;45.67;;;;;;;2.61;56.42;101087.91;10410576;28;20667;-66
2023/01/21 11:46:38;;;;;;;24.20;15.18;;;;;;;2.57;56.26;101090.53;10410975;28;20045;-66
2023/01/21 11:51:43;;;;;;;24.08;14.82;;;;;;;2.82;56.31;101099.78;10397122;28;20048;-66
2023/01/21 11:56:57;;;;;;;23.00;13.85;;;;;;;2.90;55.85;101090.22;10412101;28;20045;-65
2023/01/21 12:02:02;;;;;;;20.33;14.45;;;;;;;2.53;56.13;101088.84;10413339;28;20908;-66
2023/01/21 12:07:04;;;;;;;21.65;13.95;;;;;;;2.66;56.25;101093.88;10400116;28;20070;-66
2023/01/21 12:12:24;;;;;;;19.48;13.27;;;;;;;2.75;55.58;101093.81;10416963;28;20045;-66
2023/01/21 12:17:54;;;;;;;24.93;14.10;;;;;;;2.74;55.91;101086.94;10409198;28;20103;-65
2023/01/21 12:23:22;;;;;;;22.65;14.23;;;;;;;2.73;55.79;101085.22;10414055;28;20049;-66
2023/01/21 12:28:43;;;;;;;21.63;14.05;;;;;;;2.58;55.45;101085.34;10411086;28;20076;-66
2023/01/21 12:34:30;;;;;;;21.38;13.30;;;;;;;2.55;55.63;101087.09;10417561;28;20049;-66
2023/01/21 12:39:35;;;;;;;23.45;14.25;;;;;;;2.88;56.43;101087.66;10409735;28;20497;-66
2023/01/21 12:44:41;;;;;;;23.75;13.60;;;;;;;2.86;55.71;101084.22;10422673;28;20041;-66
2023/01/21 12:49:52;;;;;;;21.33;14.05;;;;;;;2.91;55.97;101086.75;10415230;28;20059;-66
2023/01/21 12:55:16;;;;;;;26.80;14.18;;;;;;;2.73;55.42;101097.25;10403692;28;20053;-66
2023/01/21 13:00:28;;;;;;;24.23;14.75;;;;;;;2.50;56.67;101105.22;10402453;28;20528;-66
2023/01/21 13:05:56;;;;;;;24.85;15.60;;;;;;;2.46;57.30;101111.25;10417870;28;21375;-66
2023/01/21 13:11:24;;;;;;;23.98;14.18;;;;;;;2.44;56.28;101099.25;10420287;28;20417;-66
2023/01/21 13:16:31;;;;;;;20.48;12.35;;;;;;;1.82;56.53;101113.44;10424482;28;20060;-66
2023/01/21 13:22:16;;;;;;;16.83;11.35;;;;;;;1.09;56.83;101112.88;10421932;28;20037;-66
2023/01/21 13:27:22;;;;;;;16.90;11.05;;;;;;;0.96;58.34;101124.06;10419045;28;20051;-66
2023/01/21 13:32:33;;;;;;;21.02;11.13;;;;;;;0.91;58.47;101123.19;10420202;28;20056;-66
2023/01/21 13:37:46;;;;;;;14.57;9.68;;;;;;;1.00;58.43;101122.34;10418333;28;20074;-66
2023/01/21 13:42:48;;;;;;;13.02;8.52;;;;;;;1.00;58.60;101128.34;10412808;28;20493;-66
2023/01/21 13:48:02;;;;;;;13.88;8.98;;;;;;;1.17;58.85;101124.03;10416483;28;21355;-66
2023/01/21 13:53:38;;;;;;;13.15;7.88;;;;;;;1.02;58.85;101121.47;10417057;28;20068;-66
2023/01/21 13:58:47;;;;;;;11.70;7.22;;;;;;;1.13;57.89;101119.75;10423833;28;20545;-66
2023/01/21 14:04:02;;;;;;;11.77;8.20;;;;;;;1.04;58.80;101135.22;10416214;28;20390;-66
2023/01/21 14:09:11;;;;;;;11.25;7.43;;;;;;;0.96;58.55;101138.66;10414516;28;20041;-66
2023/01/21 14:14:24;;;;;;;11.52;8.05;;;;;;;0.96;59.16;101133.50;10422265;28;20040;-66
2023/01/21 14:19:29;;;;;;;13.90;8.00;;;;;;;0.92;59.47;101136.94;10413522;28;20056;-66
2023/01/21 14:24:36;;;;;;;12.68;8.27;;;;;;;0.93;59.08;101138.69;10414992;28;20378;-66
2023/01/21 14:29:50;;;;;;;11.27;6.85;;;;;;;0.76;59.12;101138.69;10415146;28;20049;-66
2023/01/21 14:35:02;;;;;;;11.40;7.50;;;;;;;0.82;59.13;101130.97;10416616;28;20434;-65
2023/01/21 14:40:36;;;;;;;11.40;6.88;;;;;;;0.98;58.99;101124.06;10413637;28;20048;-65
2023/01/21 14:45:49;;;;;;;11.18;6.80;;;;;;;1.04;59.43;101124.91;10403737;28;20052;-66
2023/01/21 14:50:52;;;;;;;10.00;6.88;;;;;;;1.13;59.09;101132.63;10419069;28;20160;-65
2023/01/21 14:56:25;;;;;;;9.43;6.32;;;;;;;1.08;58.16;101136.91;10410338;28;20048;-66
2023/01/21 15:01:36;;;;;;;10.10;6.55;;;;;;;1.17;58.86;101136.91;10418330;28;20480;-66
2023/01/21 15:06:39;;;;;;;9.88;6.95;;;;;;;1.22;59.46;101129.16;10412316;28;20453;-66
2023/01/21 15:11:43;;;;;;;10.68;6.30;;;;;;;1.24;59.25;101133.44;10416371;28;20045;-66
2023/01/21 15:16:45;;;;;;;8.85;6.15;;;;;;;1.23;58.83;101121.44;10409536;28;20135;-66
2023/01/21 15:22:15;;;;;;;9.57;6.30;;;;;;;1.08;58.75;101139.50;10417423;28;20103;-66
2023/01/21 15:27:18;;;;;;;8.43;5.85;;;;;;;1.00;59.16;101133.50;10412762;28;20049;-66
2023/01/21 15:32:27;;;;;;;9.02;5.90;;;;;;;0.89;59.35;101144.69;10417896;28;20049;-65
2023/01/21 15:37:31;;;;;;;9.07;6.18;;;;;;;0.79;59.30;101143.81;10422952;28;20543;-65
2023/01/21 15:42:59;;;;;;;13.85;6.75;;;;;;;0.72;59.48;101147.28;10423308;28;20053;-65
2023/01/21 15:48:30;;;;;;;8.95;5.93;;;;;;;0.66;59.40;101146.41;10414457;28;20508;-65
2023/01/21 15:54:00;;;;;;;10.33;7.17;;;;;;;0.60;59.93;101146.41;10412762;28;20044;-65
2023/01/21 15:59:38;;;;;;;12.15;7.15;;;;;;;0.61;60.55;101146.41;10411093;28;20049;-65
2023/01/21 16:05:16;;;;;;;11.55;7.88;;;;;;;0.62;60.97;101153.28;10338744;28;20045;-65
2023/01/21 16:10:33;;;;;;;11.68;7.80;;;;;;;0.71;60.79;101158.41;10406308;28;20493;-65
2023/01/21 16:15:58;;;;;;;11.73;7.68;;;;;;;0.75;61.03;101162.72;10413114;28;20119;-66
2023/01/21 16:21:02;;;;;;;12.73;8.50;;;;;;;0.85;61.10;101145.56;10419982;28;20068;-66
2023/01/21 16:26:04;;;;;;;19.27;12.93;;;;;;;0.72;61.25;101143.84;10422626;28;20219;-65
2023/01/21 16:31:05;;;;;;;23.02;14.38;;;;;;;0.57;61.83;101147.28;10418332;28;20059;-65
2023/01/21 16:36:12;;;;;;;23.30;15.43;;;;;;;0.52;61.96;101157.56;10420088;28;20052;-66
2023/01/21 16:41:19;;;;;;;17.73;11.95;;;;;;;0.45;61.97;101148.13;10424544;28;20155;-65
2023/01/21 16:46:24;;;;;;;21.98;13.77;;;;;;;0.41;61.87;101161.84;10422660;28;20219;-65
2023/01/21 16:51:39;;;;;;;23.17;14.88;;;;;;;0.38;62.05;101150.72;10421961;28;20052;-65
2023/01/21 16:56:59;;;;;;;25.33;17.17;;;;;;;0.38;62.10;101148.97;10417060;28;20064;-65
2023/01/21 17:02:01;;;;;;;16.13;11.55;;;;;;;0.29;62.33;101161.84;10416468;28;20053;-66
2023/01/21 17:07:03;;;;;;;18.58;12.45;;;;;;;0.23;62.74;101153.25;10421603;28;20481;-65
2023/01/21 17:12:14;;;;;;;15.70;11.07;;;;;;;0.22;62.82;101149.81;10416232;28;20140;-66
2023/01/21 17:17:21;;;;;;;17.05;10.70;;;;;;;0.24;63.08;101136.97;10418714;28;20041;-66
2023/01/21 17:22:26;;;;;;;12.57;8.75;;;;;;;0.15;63.12;101153.25;10420665;28;20437;-66
2023/01/21 17:27:30;;;;;;;14.65;9.32;;;;;;;0.11;62.94;101140.38;10416927;28;20497;-66
2023/01/21 17:32:32;;;;;;;13.57;8.43;;;;;;;0.06;62.91;101150.66;10413912;28;20053;-66
2023/01/21 17:37:41;;;;;;;11.50;8.38;;;;;;;-0.05;63.59;101157.50;10411379;28;20049;-65
2023/01/21 17:42:43;;;;;;;12.57;8.60;;;;;;;0.00;63.64;101158.34;10413413;28;20033;-66
2023/01/21 17:47:50;;;;;;;14.32;9.45;;;;;;;0.04;63.72;101165.22;10419072;28;20048;-66
2023/01/21 17:53:20;;;;;;;12.93;9.27;;;;;;;0.04;63.69;101164.34;10423553;28;20405;-66
2023/01/21 17:58:31;;;;;;;13.40;9.05;;;;;;;-0.02;63.70;101177.19;10414811;28;20059;-65
2023/01/21 18:03:32;;;;;;;12.65;8.88;;;;;;;-0.02;63.86;101170.34;10424998;28;20060;-66
2023/01/21 18:08:34;;;;;;;13.95;9.45;;;;;;;0.04;63.65;101169.50;10425811;28;20059;-65
2023/01/21 18:13:35;;;;;;;11.80;8.25;;;;;;;0.03;63.75;101172.94;10427499;28;20052;-66
2023/01/21 18:18:37;;;;;;;15.13;9.88;;;;;;;-0.04;64.18;101168.63;10425967;28;20048;-65
2023/01/21 18:23:39;;;;;;;14.88;10.00;;;;;;;0.01;64.17;101162.66;10427096;28;20436;-66
2023/01/21 18:28:41;;;;;;;12.50;8.77;;;;;;;0.13;63.57;101164.38;10424263;28;20195;-65
2023/01/21 18:33:42;;;;;;;15.40;8.93;;;;;;;0.06;63.51;101172.91;10427383;28;20300;-65
2023/01/21 18:38:44;;;;;;;14.52;9.00;;;;;;;0.11;63.38;101168.66;10420743;28;20044;-65
2023/01/21 18:43:46;;;;;;;14.27;8.95;;;;;;;0.11;63.65;101171.25;10426349;28;20044;-66
2023/01/21 18:48:47;;;;;;;11.52;8.02;;;;;;;0.12;63.33;101172.94;10418534;28;20421;-66
2023/01/21 18:53:49;;;;;;;12.43;8.50;;;;;;;0.08;63.24;101166.06;10422280;28;20099;-66
2023/01/21 18:58:51;;;;;;;13.27;8.20;;;;;;;-0.06;63.27;101160.03;10418991;28;20468;-65
2023/01/21 19:03:53;;;;;;;11.40;7.43;;;;;;;-0.08;63.22;101162.59;10421279;28;20049;-66
2023/01/21 19:08:55;;;;;;;12.15;7.38;;;;;;;-0.20;63.24;101154.00;10417723;28;20076;-65
2023/01/21 19:13:56;;;;;;;12.52;7.65;;;;;;;-0.32;63.50;101160.81;10419172;28;20045;-66
2023/01/21 19:18:58;;;;;;;13.32;8.43;;;;;;;-0.17;63.09;101154.03;10414406;28;20048;-66
2023/01/21 19:24:00;;;;;;;13.95;8.65;;;;;;;-0.09;62.90;101152.31;10425193;28;20052;-66
2023/01/21 19:29:03;;;;;;;14.13;8.55;;;;;;;-0.18;62.82;101154.84;10422396;28;20150;-65
2023/01/21 19:34:05;;;;;;;14.20;8.93;;;;;;;-0.17;62.88;101149.75;10424981;28;20041;-65
2023/01/21 19:39:15;;;;;;;14.00;9.07;;;;;;;-0.08;62.81;101154.03;10423169;28;20429;-65
2023/01/21 19:44:17;;;;;;;16.13;9.90;;;;;;;0.00;62.58;101153.19;10424143;28;20041;-65
2023/01/21 19:49:18;;;;;;;16.88;9.73;;;;;;;0.05;62.72;101158.38;10419930;28;20780;-65
2023/01/21 19:54:20;;;;;;;18.85;10.45;;;;;;;0.11;62.20;101148.94;10425385;28;20088;-65
2023/01/21 19:59:21;;;;;;;16.00;10.38;;;;;;;0.10;62.33;101151.50;10420398;28;20075;-65
2023/01/21 20:04:23;;;;;;;15.57;10.32;;;;;;;0.14;61.88;101143.78;10421261;28;20045;-65
2023/01/21 20:09:25;;;;;;;16.63;9.60;;;;;;;0.10;61.77;101147.22;10422988;28;20049;-65
2023/01/21 20:14:27;;;;;;;17.13;10.38;;;;;;;0.10;61.87;101147.22;10424086;28;20474;-64
2023/01/21 20:19:29;;;;;;;15.68;10.05;;;;;;;0.16;62.04;101138.69;10418645;28;20076;-65
2023/01/21 20:24:32;;;;;;;15.90;9.68;;;;;;;0.18;62.19;101132.66;10414177;28;20140;-65
2023/01/21 20:29:34;;;;;;;15.75;9.43;;;;;;;0.19;61.95;101128.38;10412247;28;20048;-65
2023/01/21 20:34:38;;;;;;;15.18;9.65;;;;;;;0.13;61.95;101133.50;10418329;28;20842;-65
2023/01/21 20:39:39;;;;;;;13.85;9.70;;;;;;;0.11;62.25;101133.53;10421821;28;20056;-65
2023/01/21 20:44:41;;;;;;;16.73;10.13;;;;;;;0.13;62.17;101118.09;10422641;28;20635;-64
2023/01/21 20:49:43;;;;;;;14.75;9.73;;;;;;;0.10;61.87;101113.78;10421674;28;20055;-65
2023/01/21 20:54:44;;;;;;;16.42;10.15;;;;;;;0.09;62.09;101116.38;10423266;28;20064;-65
2023/01/21 20:59:46;;;;;;;19.25;11.13;;;;;;;0.03;62.18;101142.94;10398221;28;20068;-65
2023/01/21 21:04:47;;;;;;;18.15;11.43;;;;;;;0.17;62.19;101146.38;10428999;28;20049;-65
2023/01/21 21:09:49;;;;;;;15.93;11.02;;;;;;;0.16;62.13;101148.97;10431387;28;20055;-65
2023/01/21 21:14:51;;;;;;;18.67;11.43;;;;;;;0.20;62.12;101140.41;10430428;28;20132;-65
2023/01/21 21:19:53;;;;;;;19.40;11.45;;;;;;;0.15;61.91;101142.09;10429275;28;20045;-65
2023/01/21 21:24:54;;;;;;;18.75;11.68;;;;;;;0.18;62.19;101137.81;10431437;28;20041;-64
2023/01/21 21:29:58;;;;;;;22.17;12.23;;;;;;;0.18;62.02;101132.66;10430328;28;20067;-65
2023/01/21 21:34:59;;;;;;;19.20;11.75;;;;;;;0.21;61.94;101121.53;10429775;28;20528;-65
2023/01/21 21:40:01;;;;;;;19.85;11.70;;;;;;;0.26;61.93;101122.41;10428859;28;20393;-64
2023/01/21 21:45:03;;;;;;;18.33;12.00;;;;;;;0.19;61.76;101108.66;10430205;28;20055;-65
2023/01/21 21:50:05;;;;;;;19.98;11.82;;;;;;;0.23;61.91;101101.81;10425684;28;20097;-65
2023/01/21 21:55:09;;;;;;;19.83;12.15;;;;;;;0.22;61.88;101095.78;10422797;28;20044;-65
2023/01/21 22:00:11;;;;;;;19.90;12.48;;;;;;;0.22;61.88;101098.38;10424111;28;20057;-64
2023/01/21 22:05:13;;;;;;;21.75;12.52;;;;;;;0.15;62.19;101103.50;10419434;28;20045;-64
2023/01/21 22:10:17;;;;;;;19.25;12.88;;;;;;;0.21;62.07;101098.38;10417827;28;20049;-64
2023/01/21 22:15:18;;;;;;;19.35;12.05;;;;;;;0.29;62.00;101094.94;10416256;28;20060;-64
2023/01/21 22:20:20;;;;;;;19.17;12.00;;;;;;;0.40;61.71;101100.09;10405091;28;20053;-64
2023/01/21 22:25:22;;;;;;;21.02;12.55;;;;;;;0.49;61.37;101097.50;10416121;28;20056;-64
2023/01/21 22:30:23;;;;;;;22.92;12.93;;;;;;;0.25;61.84;101103.53;10417267;28;20057;-64
2023/01/21 22:35:25;;;;;;;26.75;15.13;;;;;;;0.26;62.45;101104.38;10418768;28;20701;-64
2023/01/21 22:40:27;;;;;;;26.13;14.88;;;;;;;0.30;62.66;101096.66;10417178;28;20049;-65
2023/01/21 22:45:28;;;;;;;22.60;14.13;;;;;;;0.38;62.45;101106.97;10417727;28;20044;-64
2023/01/21 22:50:30;;;;;;;23.70;13.82;;;;;;;0.36;62.70;101086.34;10418172;28;20523;-64
2023/01/21 22:55:32;;;;;;;23.90;14.93;;;;;;;0.38;63.02;101096.69;10410443;28;20057;-65
2023/01/21 23:00:39;;;;;;;29.02;15.60;;;;;;;0.38;63.28;101083.81;10415344;28;20053;-65
2023/01/21 23:05:41;;;;;;;31.95;17.35;;;;;;;0.37;63.28;101089.78;10414677;28;20045;-64
2023/01/21 23:10:43;;;;;;;28.00;16.25;;;;;;;0.42;63.30;101082.94;10413275;28;20448;-65
2023/01/21 23:15:46;;;;;;;33.30;17.77;;;;;;;0.43;63.32;101076.94;10417207;28;20052;-65
2023/01/21 23:20:47;;;;;;;31.50;18.05;;;;;;;0.35;63.73;101074.38;10411870;28;20040;-65